createdAt,value
2023-01-11T00:01:00.486Z,7.76
2023-01-11T00:03:27.421Z,7.76
2023-01-11T00:05:57.405Z,7.76
2023-01-11T00:08:27.211Z,7.76
2023-01-11T00:10:55.431Z,7.75
2023-01-11T00:13:22.972Z,7.75
2023-01-11T00:15:50.185Z,7.73
2023-01-11T00:18:17.253Z,7.73
2023-01-11T00:20:44.644Z,7.72
2023-01-11T00:23:11.843Z,7.72
2023-01-11T00:25:40.524Z,7.66
2023-01-11T00:28:07.507Z,7.63
2023-01-11T00:30:35.602Z,7.63
2023-01-11T00:33:02.644Z,7.62
2023-01-11T00:35:32.314Z,7.60
2023-01-11T00:37:59.583Z,7.56
2023-01-11T00:40:27.163Z,7.55
2023-01-11T00:43:14.077Z,7.55
2023-01-11T00:46:00.008Z,7.57
2023-01-11T00:48:27.071Z,7.57
2023-01-11T00:50:56.500Z,7.60
2023-01-11T00:53:23.686Z,7.62
2023-01-11T00:55:50.666Z,7.64
2023-01-11T00:58:19.019Z,7.63
2023-01-11T01:00:45.987Z,7.62
2023-01-11T01:03:13.040Z,7.62
2023-01-11T01:05:40.085Z,7.62
2023-01-11T01:08:07.348Z,7.64
2023-01-11T01:10:34.303Z,7.63
2023-01-11T01:13:19.891Z,7.62
2023-01-11T01:15:48.342Z,7.62
2023-01-11T01:18:15.510Z,7.62
2023-01-11T01:20:43.816Z,7.63
2023-01-11T01:23:10.808Z,7.62
2023-01-11T01:25:38.051Z,7.60
2023-01-11T01:28:05.371Z,7.59
2023-01-11T01:30:33.719Z,7.56
2023-01-11T01:33:02.102Z,7.55
2023-01-11T01:35:29.057Z,7.52
2023-01-11T01:37:56.183Z,7.49
2023-01-11T01:40:23.223Z,7.48
2023-01-11T01:42:54.154Z,7.47
2023-01-11T01:45:24.013Z,7.46
2023-01-11T01:47:55.024Z,7.43
2023-01-11T01:50:27.537Z,7.41
2023-01-11T01:53:00.716Z,7.37
2023-01-11T01:55:31.302Z,7.36
2023-01-11T01:58:00.611Z,7.37
2023-01-11T02:00:27.592Z,7.36
2023-01-11T02:02:57.364Z,7.34
2023-01-11T02:05:26.146Z,7.36
2023-01-11T02:07:56.309Z,7.36
2023-01-11T02:10:28.089Z,7.37
2023-01-11T02:13:00.448Z,7.37
2023-01-11T02:15:29.010Z,7.38
2023-01-11T02:17:56.021Z,7.40
2023-01-11T02:20:35.011Z,7.39
2023-01-11T02:23:40.333Z,7.40
2023-01-11T02:26:42.574Z,7.39
2023-01-11T02:29:16.355Z,7.37
2023-01-11T02:31:49.470Z,7.37
2023-01-11T02:34:29.319Z,7.39
2023-01-11T02:37:06.153Z,7.38
2023-01-11T02:39:42.647Z,7.39
2023-01-11T02:42:32.797Z,7.40
2023-01-11T02:45:08.495Z,7.39
2023-01-11T02:47:43.168Z,7.39
2023-01-11T02:50:16.707Z,7.38
2023-01-11T02:52:51.451Z,7.36
2023-01-11T02:55:23.209Z,7.35
2023-01-11T02:57:55.583Z,7.35
2023-01-11T03:00:24.967Z,7.35
2023-01-11T03:03:14.688Z,7.31
2023-01-11T03:05:45.964Z,7.28
2023-01-11T03:08:25.560Z,7.28
2023-01-11T03:11:02.854Z,7.26
2023-01-11T03:13:44.278Z,7.25
2023-01-11T03:16:23.240Z,7.24
2023-01-11T03:18:59.726Z,7.14
2023-01-11T03:21:40.569Z,6.97
2023-01-11T03:24:15.774Z,6.83
2023-01-11T03:26:53.886Z,6.65
2023-01-11T03:29:28.892Z,6.57
2023-01-11T03:32:10.410Z,6.58
2023-01-11T03:34:44.502Z,6.59
2023-01-11T03:37:15.216Z,6.59
2023-01-11T03:39:46.609Z,6.59
2023-01-11T03:42:16.854Z,6.58
2023-01-11T03:44:46.920Z,6.62
2023-01-11T03:47:18.760Z,6.66
2023-01-11T03:49:49.142Z,6.71
2023-01-11T03:52:20.719Z,6.76
2023-01-11T03:54:48.158Z,6.81
2023-01-11T03:57:18.706Z,6.81
2023-01-11T03:59:46.327Z,6.84
2023-01-11T04:02:19.358Z,6.84
2023-01-11T04:04:46.561Z,6.87
2023-01-11T04:07:13.722Z,6.87
2023-01-11T04:09:40.945Z,6.82
2023-01-11T04:12:08.368Z,6.72
2023-01-11T04:14:35.333Z,6.67
2023-01-11T04:17:02.568Z,6.65
2023-01-11T04:19:31.835Z,6.64
2023-01-11T04:21:58.846Z,6.68
2023-01-11T04:24:25.861Z,6.73
2023-01-11T04:26:52.875Z,6.76
2023-01-11T04:29:19.855Z,6.68
2023-01-11T04:31:46.785Z,6.62
2023-01-11T04:34:14.151Z,6.64
2023-01-11T04:36:42.796Z,6.64
2023-01-11T04:39:13.214Z,6.66
2023-01-11T04:41:58.463Z,6.70
2023-01-11T04:44:25.651Z,6.75
2023-01-11T04:46:52.600Z,6.77
2023-01-11T04:49:19.562Z,6.81
2023-01-11T04:51:47.890Z,6.84
2023-01-11T04:54:16.215Z,6.86
2023-01-11T04:56:43.229Z,6.88
2023-01-11T04:59:10.230Z,6.87
2023-01-11T05:01:37.303Z,6.86
2023-01-11T05:04:04.527Z,6.88
2023-01-11T05:06:31.799Z,6.90
2023-01-11T05:09:00.153Z,6.84
2023-01-11T05:11:30.032Z,6.75
2023-01-11T05:13:59.970Z,6.74
2023-01-11T05:16:27.223Z,6.77
2023-01-11T05:18:56.532Z,6.81
2023-01-11T05:21:25.132Z,6.79
2023-01-11T05:23:52.743Z,6.78
2023-01-11T05:26:23.252Z,6.79
2023-01-11T05:28:51.628Z,6.83
2023-01-11T05:31:19.519Z,6.83
2023-01-11T05:33:46.519Z,6.81
2023-01-11T05:36:15.414Z,6.83
2023-01-11T05:38:42.770Z,6.79
2023-01-11T05:41:10.715Z,6.77
2023-01-11T05:43:58.151Z,6.74
2023-01-11T05:46:26.237Z,6.78
2023-01-11T05:48:55.814Z,6.81
2023-01-11T05:51:23.111Z,6.84
2023-01-11T05:53:53.054Z,6.86
2023-01-11T05:56:20.002Z,6.88
2023-01-11T05:58:50.115Z,6.88
2023-01-11T06:01:17.832Z,6.87
2023-01-11T06:03:45.106Z,6.85
2023-01-11T06:06:12.214Z,6.86
2023-01-11T06:08:39.130Z,6.89
2023-01-11T06:11:06.283Z,6.92
2023-01-11T06:13:33.999Z,6.92
2023-01-11T06:16:04.572Z,6.90
2023-01-11T06:18:32.968Z,6.86
2023-01-11T06:21:01.215Z,6.86
2023-01-11T06:23:30.740Z,6.87
2023-01-11T06:26:00.718Z,6.87
2023-01-11T06:28:27.729Z,6.89
2023-01-11T06:30:56.348Z,6.90
2023-01-11T06:33:26.038Z,6.91
2023-01-11T06:35:53.781Z,6.92
2023-01-11T06:38:22.682Z,6.90
2023-01-11T06:40:53.406Z,6.90
2023-01-11T06:43:21.080Z,6.92
2023-01-11T06:45:48.130Z,6.94
2023-01-11T06:48:17.736Z,6.96
2023-01-11T06:50:47.894Z,6.97
2023-01-11T06:53:15.199Z,6.98
2023-01-11T06:55:42.466Z,7.00
2023-01-11T06:58:12.266Z,7.02
2023-01-11T07:00:39.420Z,7.04
2023-01-11T07:03:07.009Z,7.06
2023-01-11T07:05:35.353Z,7.07
2023-01-11T07:08:03.920Z,7.10
2023-01-11T07:10:31.028Z,7.11
2023-01-11T07:13:00.203Z,7.13
2023-01-11T07:15:28.382Z,7.13
2023-01-11T07:17:56.211Z,7.17
2023-01-11T07:20:23.241Z,7.18
2023-01-11T07:22:50.360Z,7.18
2023-01-11T07:25:19.336Z,7.19
2023-01-11T07:27:46.329Z,7.21
2023-01-11T07:30:13.955Z,7.21
2023-01-11T07:32:40.914Z,7.21
2023-01-11T07:35:08.579Z,7.19
2023-01-11T07:37:38.528Z,7.16
2023-01-11T07:40:06.539Z,7.20
2023-01-11T07:42:53.446Z,7.24
2023-01-11T07:45:20.501Z,7.30
2023-01-11T07:47:50.355Z,7.34
2023-01-11T07:50:17.616Z,7.37
2023-01-11T07:52:48.122Z,7.41
2023-01-11T07:55:15.370Z,7.46
2023-01-11T07:57:43.773Z,7.50
2023-01-11T08:00:12.181Z,7.53
2023-01-11T08:02:39.312Z,7.56
2023-01-11T08:05:07.686Z,7.57
2023-01-11T08:07:34.620Z,7.62
2023-01-11T08:10:03.204Z,7.65
2023-01-11T08:12:51.359Z,7.68
2023-01-11T08:15:21.751Z,7.74
2023-01-11T08:17:50.093Z,7.78
2023-01-11T08:20:17.443Z,7.82
2023-01-11T08:22:44.443Z,7.89
2023-01-11T08:25:11.469Z,7.95
2023-01-11T08:27:41.496Z,8.00
2023-01-11T08:30:10.037Z,8.04
2023-01-11T08:32:38.582Z,8.07
2023-01-11T08:35:06.048Z,8.09
2023-01-11T08:37:33.259Z,8.13
2023-01-11T08:40:00.323Z,8.15
2023-01-11T08:42:27.624Z,8.16
2023-01-11T08:44:55.543Z,8.18
2023-01-11T08:47:23.118Z,8.20
2023-01-11T08:49:51.605Z,8.23
2023-01-11T08:52:18.590Z,8.26
2023-01-11T08:54:45.919Z,8.27
2023-01-11T08:57:12.872Z,8.29
2023-01-11T08:59:39.873Z,8.29
2023-01-11T09:02:07.502Z,8.27
2023-01-11T09:04:34.429Z,8.28
2023-01-11T09:07:03.567Z,8.27
2023-01-11T09:09:31.217Z,8.27
2023-01-11T09:12:00.396Z,8.28
2023-01-11T09:14:28.826Z,8.28
2023-01-11T09:16:56.783Z,8.27
2023-01-11T09:19:24.085Z,8.28
2023-01-11T09:21:52.008Z,8.28
2023-01-11T09:24:20.675Z,8.27
2023-01-11T09:26:47.890Z,8.27
2023-01-11T09:29:14.927Z,8.27
2023-01-11T09:31:41.934Z,8.29
2023-01-11T09:34:12.671Z,8.29
2023-01-11T09:36:41.599Z,8.29
2023-01-11T09:39:12.785Z,8.30
2023-01-11T09:42:11.627Z,8.27
2023-01-11T09:44:50.479Z,8.27
2023-01-11T09:47:25.474Z,8.26
2023-01-11T09:49:57.441Z,8.29
2023-01-11T09:52:29.161Z,8.31
2023-01-11T09:54:58.558Z,8.32
2023-01-11T09:57:40.614Z,8.30
2023-01-11T10:00:16.568Z,8.30
2023-01-11T10:03:04.488Z,8.28
2023-01-11T10:05:41.652Z,8.25
2023-01-11T10:18:22.720Z,8.19
2023-01-11T10:18:26.562Z,8.16
2023-01-11T10:20:24.893Z,8.17
2023-01-11T10:22:58.000Z,8.17
2023-01-11T10:25:33.573Z,8.17
2023-01-11T10:28:06.811Z,8.17
2023-01-11T10:30:53.756Z,8.15
2023-01-11T10:33:40.312Z,8.10
2023-01-11T10:36:44.017Z,8.05
2023-01-11T10:39:25.187Z,8.03
2023-01-11T10:42:03.712Z,8.05
2023-01-11T10:44:38.963Z,8.01
2023-01-11T10:47:13.987Z,8.00
2023-01-11T10:49:48.553Z,7.99
2023-01-11T10:52:24.761Z,7.97
2023-01-11T10:54:55.951Z,7.96
2023-01-11T10:58:00.432Z,7.91
2023-01-11T11:00:36.529Z,7.82
2023-01-11T11:03:48.392Z,7.82
2023-01-11T11:06:25.513Z,7.81
2023-01-11T11:08:57.702Z,7.75
2023-01-11T11:11:31.741Z,7.71
2023-01-11T11:14:06.391Z,7.66
2023-01-11T11:16:45.730Z,7.64
2023-01-11T11:19:17.003Z,7.64
2023-01-11T11:21:47.050Z,7.61
2023-01-11T11:24:19.757Z,7.59
2023-01-11T11:26:53.875Z,7.58
2023-01-11T11:29:23.435Z,7.58
2023-01-11T11:31:51.303Z,7.59
2023-01-11T11:34:23.152Z,7.53
2023-01-11T11:36:52.500Z,7.51
2023-01-11T11:39:22.150Z,7.50
2023-01-11T11:41:51.406Z,7.50
2023-01-11T11:44:21.468Z,7.53
2023-01-11T11:46:57.302Z,7.56
2023-01-11T11:49:24.503Z,7.56
2023-01-11T11:51:53.953Z,7.56
2023-01-11T11:54:25.964Z,7.54
2023-01-11T11:56:54.630Z,7.53
2023-01-11T11:59:23.692Z,7.55
2023-01-11T12:02:00.175Z,7.54
2023-01-11T12:04:45.107Z,7.55
2023-01-11T12:07:19.504Z,7.53
2023-01-11T12:09:49.025Z,7.50
2023-01-11T12:12:20.836Z,7.47
2023-01-11T12:15:07.608Z,7.48
2023-01-11T12:17:35.239Z,7.49
2023-01-11T12:20:02.263Z,7.46
2023-01-11T12:22:30.615Z,7.47
2023-01-11T12:25:26.822Z,7.47
2023-01-11T12:28:02.368Z,7.47
2023-01-11T12:30:38.508Z,7.49
2023-01-11T12:33:27.586Z,7.50
2023-01-11T12:36:03.318Z,7.52
2023-01-11T12:38:39.763Z,7.55
2023-01-11T12:41:44.793Z,7.56
2023-01-11T12:44:19.097Z,7.61
2023-01-11T12:46:58.571Z,7.60
2023-01-11T12:49:38.462Z,7.64
2023-01-11T12:52:29.339Z,7.64
2023-01-11T12:55:15.300Z,7.68
2023-01-11T13:32:11.640Z,7.69
2023-01-11T13:34:42.284Z,7.63
2023-01-11T13:37:15.749Z,7.53
2023-01-11T13:39:48.792Z,7.48
2023-01-11T13:42:20.674Z,7.42
2023-01-11T13:44:51.115Z,7.39
2023-01-11T13:47:27.095Z,7.40
2023-01-11T13:50:01.192Z,7.39
2023-01-11T13:52:44.108Z,7.41
2023-01-11T13:55:24.921Z,7.38
2023-01-11T13:57:56.977Z,7.37
2023-01-11T14:00:30.632Z,7.39
2023-01-11T14:03:09.967Z,7.39
2023-01-11T14:05:44.668Z,7.36
2023-01-11T14:08:36.927Z,7.32
2023-01-11T14:11:11.375Z,7.31
2023-01-11T14:14:09.588Z,7.29
2023-01-11T14:16:48.623Z,7.32
2023-01-11T14:19:25.353Z,7.32
2023-01-11T14:22:03.869Z,7.29
2023-01-11T14:24:34.566Z,7.27
2023-01-11T14:27:23.189Z,7.27
2023-01-11T14:30:04.581Z,7.31
2023-01-11T14:32:56.139Z,7.33
2023-01-11T14:36:05.447Z,7.36
2023-01-11T14:38:54.079Z,7.39
2023-01-11T14:41:58.420Z,7.42
2023-01-11T14:44:59.788Z,7.45
2023-01-11T14:47:50.751Z,7.47
2023-01-11T14:50:27.690Z,7.38
2023-01-11T14:52:59.860Z,7.33
2023-01-11T14:55:30.741Z,7.32
2023-01-11T14:58:04.489Z,7.29
2023-01-11T15:01:04.774Z,7.31
2023-01-11T15:03:37.365Z,7.30
2023-01-11T15:06:13.883Z,7.30
2023-01-11T15:08:47.635Z,7.34
2023-01-11T15:11:37.963Z,7.33
2023-01-11T15:14:24.992Z,7.29
2023-01-11T15:17:12.812Z,7.27
2023-01-11T15:19:42.369Z,7.28
2023-01-11T15:22:23.268Z,7.27
2023-01-11T15:25:00.625Z,7.26
2023-01-11T15:27:34.893Z,7.22
2023-01-11T15:30:03.189Z,7.23
2023-01-11T15:32:32.176Z,7.17
2023-01-11T15:35:32.474Z,7.09
2023-01-11T15:38:08.982Z,7.06
2023-01-11T15:40:41.036Z,7.03
2023-01-11T15:43:50.234Z,7.08
2023-01-11T15:46:55.094Z,7.04
2023-01-11T15:49:54.834Z,6.98
2023-01-11T15:53:24.705Z,6.98
2023-01-11T15:56:14.883Z,6.92
2023-01-11T15:59:17.653Z,6.92
2023-01-11T16:02:03.250Z,6.87
2023-01-11T16:04:33.716Z,6.79
2023-01-11T16:07:05.563Z,6.78
2023-01-11T16:10:00.045Z,6.73
2023-01-11T16:12:49.368Z,6.74
2023-01-11T16:15:30.284Z,6.76
2023-01-11T16:18:05.193Z,6.73
2023-01-11T16:20:32.468Z,6.72
2023-01-11T16:23:02.546Z,6.69
2023-01-11T16:25:31.301Z,6.66
2023-01-11T16:28:00.568Z,6.65
2023-01-11T16:30:28.472Z,6.63
2023-01-11T16:33:13.922Z,6.65
2023-01-11T16:35:41.115Z,6.62
2023-01-11T16:38:14.608Z,6.60
2023-01-11T16:40:46.309Z,6.62
2023-01-11T16:43:21.081Z,6.60
2023-01-11T16:45:49.860Z,6.59
2023-01-11T16:48:18.861Z,6.58
2023-01-11T16:50:49.629Z,6.57
2023-01-11T16:53:17.765Z,6.58
2023-01-11T16:55:53.291Z,6.59
2023-01-11T16:58:26.724Z,6.63
2023-01-11T17:00:59.622Z,6.62
2023-01-11T17:03:28.874Z,6.61
2023-01-11T17:06:19.608Z,6.61
2023-01-11T17:08:52.195Z,6.58
2023-01-11T17:11:38.085Z,6.59
2023-01-11T17:14:28.567Z,6.55
2023-01-11T17:17:01.490Z,6.50
2023-01-11T17:19:30.924Z,6.50
2023-01-11T17:22:03.070Z,6.47
2023-01-11T17:24:34.297Z,6.46
2023-01-11T17:27:02.238Z,6.47
2023-01-11T17:29:32.887Z,6.48
2023-01-11T17:32:03.049Z,6.52
2023-01-11T17:34:32.174Z,6.54
2023-01-11T17:37:00.524Z,6.54
2023-01-11T17:39:32.587Z,6.57
2023-01-11T17:42:20.257Z,6.53
2023-01-11T17:45:09.328Z,6.55
2023-01-11T17:47:39.023Z,6.55
2023-01-11T17:50:16.803Z,6.53
2023-01-11T17:52:54.107Z,6.51
2023-01-11T17:55:24.249Z,6.59
2023-01-11T17:58:10.644Z,6.63
2023-01-11T18:00:41.032Z,6.64
2023-01-11T18:03:17.053Z,6.65
2023-01-11T18:05:44.443Z,6.62
2023-01-11T18:08:19.256Z,6.58
2023-01-11T18:10:51.178Z,6.54
2023-01-11T18:13:24.755Z,6.50
2023-01-11T18:15:55.026Z,6.49
2023-01-11T18:18:41.842Z,6.49
2023-01-11T18:21:41.208Z,6.49
2023-01-11T18:24:32.279Z,6.50
2023-01-11T18:27:25.563Z,6.48
2023-01-11T18:29:53.456Z,6.46
2023-01-11T18:32:22.278Z,6.50
2023-01-11T18:34:53.259Z,6.51
2023-01-11T18:37:20.919Z,6.50
2023-01-11T18:39:49.749Z,6.50
2023-01-11T18:42:19.808Z,6.50
2023-01-11T18:44:49.432Z,6.48
2023-01-11T18:47:21.403Z,6.47
2023-01-11T18:49:51.462Z,6.54
2023-01-11T18:52:23.357Z,6.58
2023-01-11T18:54:53.607Z,6.61
2023-01-11T18:57:20.778Z,6.61
2023-01-11T18:59:48.556Z,6.64
2023-01-11T19:02:24.424Z,6.62
2023-01-11T19:04:57.061Z,6.65
2023-01-11T19:07:25.600Z,6.67
2023-01-11T19:09:55.170Z,6.66
2023-01-11T19:12:23.858Z,6.67
2023-01-11T19:14:51.358Z,6.66
2023-01-11T19:17:18.754Z,6.67
2023-01-11T19:19:47.948Z,6.69
2023-01-11T19:22:17.785Z,6.69
2023-01-11T19:24:45.239Z,6.69
2023-01-11T19:27:14.901Z,6.70
2023-01-11T19:29:42.457Z,6.73
2023-01-11T19:32:10.353Z,6.74
2023-01-11T19:34:37.520Z,6.77
2023-01-11T19:37:05.493Z,6.78
2023-01-11T19:39:34.348Z,6.77
2023-01-11T19:42:03.380Z,6.78
2023-01-11T19:44:33.219Z,6.80
2023-01-11T19:47:11.547Z,6.79
2023-01-11T19:49:40.181Z,6.78
2023-01-11T19:52:13.750Z,6.78
2023-01-11T19:54:43.372Z,6.77
2023-01-11T19:57:11.352Z,6.77
2023-01-11T19:59:39.196Z,6.76
2023-01-11T20:02:07.189Z,6.76
2023-01-11T20:04:34.379Z,6.73
2023-01-11T20:07:01.368Z,6.67
2023-01-11T20:09:28.703Z,6.59
2023-01-11T20:12:00.875Z,6.49
2023-01-11T20:14:28.010Z,6.46
2023-01-11T20:16:55.185Z,6.40
2023-01-11T20:19:22.322Z,6.30
2023-01-11T20:21:49.525Z,6.29
2023-01-11T20:24:16.884Z,6.24
2023-01-11T20:26:47.221Z,6.23
2023-01-11T20:29:16.097Z,6.23
2023-01-11T20:31:44.280Z,6.22
2023-01-11T20:34:12.376Z,6.23
2023-01-11T20:36:40.387Z,6.20
2023-01-11T20:39:08.403Z,6.23
2023-01-11T20:41:48.775Z,6.24
2023-01-11T20:44:19.445Z,6.25
2023-01-11T20:46:48.229Z,6.24
2023-01-11T20:49:16.281Z,6.20
2023-01-11T20:51:44.291Z,6.17
2023-01-11T20:54:11.857Z,6.14
2023-01-11T20:56:39.234Z,6.11
2023-01-11T20:59:07.694Z,6.08
2023-01-11T21:01:37.102Z,6.06
2023-01-11T21:04:06.696Z,6.02
2023-01-11T21:06:37.505Z,5.98
2023-01-11T21:09:07.064Z,5.93
2023-01-11T21:11:34.596Z,5.87
2023-01-11T21:14:04.142Z,5.85
2023-01-11T21:16:32.015Z,5.82
2023-01-11T21:19:01.549Z,5.78
2023-01-11T21:21:31.326Z,5.77
2023-01-11T21:23:59.962Z,5.74
2023-01-11T21:26:31.274Z,5.72
2023-01-11T21:29:00.045Z,5.69
2023-01-11T21:31:28.280Z,5.67
2023-01-11T21:33:55.349Z,5.68
2023-01-11T21:36:25.447Z,5.65
2023-01-11T21:38:53.614Z,5.64
2023-01-11T21:41:41.055Z,5.65
2023-01-11T21:44:09.776Z,5.60
2023-01-11T21:46:37.473Z,5.58
2023-01-11T21:49:04.658Z,5.58
2023-01-11T21:51:34.545Z,5.58
2023-01-11T21:54:05.675Z,5.60
2023-01-11T21:56:32.973Z,5.62
2023-01-11T21:59:00.177Z,5.60
2023-01-11T22:01:27.761Z,5.61
2023-01-11T22:03:54.727Z,5.62
2023-01-11T22:06:21.903Z,5.60
2023-01-11T22:08:50.268Z,5.57
2023-01-11T22:11:17.760Z,5.56
2023-01-11T22:13:44.880Z,5.56
2023-01-11T22:16:13.993Z,5.57
2023-01-11T22:18:41.658Z,5.56
2023-01-11T22:21:10.158Z,5.57
2023-01-11T22:23:37.119Z,5.55
2023-01-11T22:26:07.922Z,5.55
2023-01-11T22:28:57.374Z,5.54
2023-01-11T22:31:26.369Z,5.49
2023-01-11T22:33:54.353Z,5.49
2023-01-11T22:36:23.376Z,5.49
2023-01-11T22:38:50.846Z,5.51
2023-01-11T22:41:19.548Z,5.46
2023-01-11T22:43:49.681Z,5.43
2023-01-11T22:46:21.206Z,5.40
2023-01-11T22:48:48.887Z,5.42
2023-01-11T22:51:19.554Z,5.42
2023-01-11T22:53:50.965Z,5.41
2023-01-11T22:56:22.285Z,5.39
2023-01-11T22:58:52.427Z,5.39
2023-01-11T23:01:20.895Z,5.37
2023-01-11T23:03:51.205Z,5.41
2023-01-11T23:06:20.083Z,5.38
2023-01-11T23:08:47.715Z,5.36
2023-01-11T23:11:35.034Z,5.36
2023-01-11T23:14:04.304Z,5.34
2023-01-11T23:16:31.810Z,5.35
2023-01-11T23:19:02.384Z,5.34
2023-01-11T23:21:29.534Z,5.35
2023-01-11T23:23:56.564Z,5.32
2023-01-11T23:26:23.709Z,5.35
2023-01-11T23:28:53.620Z,5.36
2023-01-11T23:31:23.745Z,5.38
2023-01-11T23:33:52.877Z,5.40
2023-01-11T23:36:21.767Z,5.40
2023-01-11T23:38:49.038Z,5.44
2023-01-11T23:41:36.220Z,5.45
2023-01-11T23:44:05.423Z,5.46
2023-01-11T23:46:52.407Z,5.42
2023-01-11T23:49:19.566Z,5.38
2023-01-11T23:51:46.795Z,5.39
2023-01-11T23:54:14.253Z,5.39
2023-01-11T23:56:41.197Z,5.40
2023-01-11T23:59:08.966Z,5.38
